createdAt,value
2023-05-18T00:02:36.000Z,12.2
2023-05-18T00:07:36.000Z,12.17
2023-05-18T00:12:36.000Z,12.09
2023-05-18T00:17:35.000Z,11.95
2023-05-18T00:22:36.000Z,11.9
2023-05-18T00:27:36.000Z,11.89
2023-05-18T00:32:36.000Z,11.86
2023-05-18T00:37:36.000Z,11.81
2023-05-18T00:42:36.000Z,11.8
2023-05-18T00:47:35.000Z,11.77
2023-05-18T00:52:35.000Z,11.75
2023-05-18T00:57:35.000Z,11.76
2023-05-18T01:02:35.000Z,11.76
2023-05-18T01:07:35.000Z,11.74
2023-05-18T01:12:35.000Z,11.73
2023-05-18T01:17:36.000Z,11.8
2023-05-18T01:22:36.000Z,11.82
2023-05-18T01:27:35.000Z,11.87
2023-05-18T01:32:36.000Z,11.91
2023-05-18T01:37:36.000Z,11.93
2023-05-18T01:42:35.000Z,11.94
2023-05-18T01:47:36.000Z,12
2023-05-18T01:52:35.000Z,12.03
2023-05-18T01:57:36.000Z,11.97
2023-05-18T02:02:36.000Z,11.98
2023-05-18T02:07:36.000Z,12.04
2023-05-18T02:12:36.000Z,12.12
2023-05-18T02:17:36.000Z,12.12
2023-05-18T02:22:36.000Z,12.18
2023-05-18T02:27:36.000Z,12.27
2023-05-18T02:32:36.000Z,12.38
2023-05-18T02:37:36.000Z,12.46
2023-05-18T02:42:36.000Z,12.6
2023-05-18T02:47:35.000Z,12.79
2023-05-18T02:52:36.000Z,12.97
2023-05-18T02:57:36.000Z,13.17
2023-05-18T03:02:36.000Z,13.38
2023-05-18T03:07:35.000Z,13.6
2023-05-18T03:12:36.000Z,13.79
2023-05-18T03:17:36.000Z,14.18
2023-05-18T03:22:35.000Z,14.96
2023-05-18T03:27:36.000Z,14.96
2023-05-18T03:32:36.000Z,15.78
2023-05-18T03:37:36.000Z,17.31
2023-05-18T03:42:35.000Z,18.49
2023-05-18T03:47:35.000Z,19.23
2023-05-18T03:52:36.000Z,18.81
2023-05-18T03:57:36.000Z,18.27
2023-05-18T04:02:36.000Z,18.14
2023-05-18T04:07:35.000Z,18.11
2023-05-18T04:12:36.000Z,18.35
2023-05-18T04:17:36.000Z,19.07
2023-05-18T04:22:35.000Z,19
2023-05-18T04:27:35.000Z,19.59
2023-05-18T04:32:35.000Z,20.23
2023-05-18T04:37:35.000Z,20.23
2023-05-18T04:42:36.000Z,20.09
2023-05-18T04:47:35.000Z,20.14
2023-05-18T04:52:36.000Z,20.25
2023-05-18T04:57:36.000Z,20.37
2023-05-18T05:02:36.000Z,20.54
2023-05-18T05:07:35.000Z,20.73
2023-05-18T05:12:35.000Z,21.04
2023-05-18T05:17:36.000Z,21.52
2023-05-18T05:22:35.000Z,22.98
2023-05-18T05:27:35.000Z,26.44
2023-05-18T05:32:36.000Z,29.82
2023-05-18T05:37:35.000Z,32.79
2023-05-18T05:42:35.000Z,35.2
2023-05-18T05:47:36.000Z,35.2
2023-05-18T05:52:35.000Z,36.55
2023-05-18T05:57:36.000Z,37.45
2023-05-18T06:02:36.000Z,37.79
2023-05-18T06:07:36.000Z,39.87
2023-05-18T06:12:36.000Z,41.06
2023-05-18T06:17:35.000Z,41.87
2023-05-18T06:22:36.000Z,41.77
2023-05-18T06:27:35.000Z,42.85
2023-05-18T06:32:36.000Z,42.52
2023-05-18T06:37:36.000Z,42.26
2023-05-18T06:42:38.000Z,43.38
2023-05-18T06:47:36.000Z,43.42
2023-05-18T06:52:37.000Z,43.42
2023-05-18T06:57:36.000Z,43.65
2023-05-18T07:02:36.000Z,44.29
2023-05-18T07:07:36.000Z,43.9
2023-05-18T07:12:36.000Z,44.07
2023-05-18T07:17:36.000Z,43.72
2023-05-18T07:22:35.000Z,43.36
2023-05-18T07:27:36.000Z,43.79
2023-05-18T07:32:35.000Z,43.99
2023-05-18T07:37:36.000Z,44.79
2023-05-18T07:42:35.000Z,45.94
2023-05-18T07:47:35.000Z,45.52
2023-05-18T07:52:36.000Z,45.76
2023-05-18T07:57:36.000Z,45.22
2023-05-18T08:02:36.000Z,44.62
2023-05-18T08:07:36.000Z,44.62
2023-05-18T08:12:35.000Z,43.87
2023-05-18T08:17:36.000Z,44.39
2023-05-18T08:22:35.000Z,44.99
2023-05-18T08:27:35.000Z,43.4
2023-05-18T08:32:35.000Z,39.5
2023-05-18T08:37:35.000Z,37.84
2023-05-18T08:42:47.000Z,38.9
2023-05-18T08:47:36.000Z,36.37
2023-05-18T08:52:35.000Z,33.75
2023-05-18T08:57:36.000Z,32.67
2023-05-18T09:02:35.000Z,32.09
2023-05-18T09:07:35.000Z,31.2
2023-05-18T09:12:36.000Z,31.2
2023-05-18T09:17:35.000Z,30.06
2023-05-18T09:22:36.000Z,29.36
2023-05-18T09:27:36.000Z,28.83
2023-05-18T09:32:35.000Z,28.3
2023-05-18T09:37:35.000Z,28
2023-05-18T09:42:36.000Z,27.84
2023-05-18T09:47:35.000Z,27.58
2023-05-18T09:52:40.000Z,27.92
2023-05-18T09:57:36.000Z,28.31
2023-05-18T10:02:35.000Z,28.43
2023-05-18T10:07:36.000Z,28.46
2023-05-18T10:12:35.000Z,28.38
2023-05-18T10:17:36.000Z,28.59
2023-05-18T10:22:35.000Z,28.59
2023-05-18T10:27:36.000Z,28.59
2023-05-18T10:32:36.000Z,28.45
2023-05-18T10:37:35.000Z,28.22
2023-05-18T10:42:35.000Z,28.22
2023-05-18T10:47:35.000Z,28.05
2023-05-18T10:52:35.000Z,27.55
2023-05-18T10:57:36.000Z,27.27
2023-05-18T11:02:36.000Z,27.5
2023-05-18T11:07:36.000Z,27.65
2023-05-18T11:12:36.000Z,27.71
2023-05-18T11:17:36.000Z,27.81
2023-05-18T11:22:39.000Z,27.93
2023-05-18T11:27:36.000Z,27.96
2023-05-18T11:32:40.000Z,27.94
2023-05-18T11:37:36.000Z,27.55
2023-05-18T11:42:36.000Z,27.55
2023-05-18T11:47:36.000Z,27.59
2023-05-18T11:52:35.000Z,27.36
2023-05-18T11:57:35.000Z,27.31
2023-05-18T12:02:36.000Z,27.23
2023-05-18T12:07:35.000Z,27.29
2023-05-18T12:12:35.000Z,27.5
2023-05-18T12:17:36.000Z,27.59
2023-05-18T12:22:36.000Z,27.78
2023-05-18T12:27:36.000Z,27.85
2023-05-18T12:32:35.000Z,27.85
2023-05-18T12:37:44.000Z,27.85
2023-05-18T12:42:35.000Z,27.71
2023-05-18T12:47:35.000Z,27.71
2023-05-18T12:52:35.000Z,27.69
2023-05-18T12:57:36.000Z,27.44
2023-05-18T13:02:36.000Z,27.31
2023-05-18T13:07:36.000Z,27.27
2023-05-18T13:12:36.000Z,27.12
2023-05-18T13:17:35.000Z,26.99
2023-05-18T13:22:37.000Z,26.92
2023-05-18T13:27:35.000Z,26.68
2023-05-18T13:32:35.000Z,26.38
2023-05-18T13:37:36.000Z,26.08
2023-05-18T13:42:36.000Z,26.08
2023-05-18T13:47:35.000Z,26.25
2023-05-18T13:52:36.000Z,26.25
2023-05-18T13:57:36.000Z,26.27
2023-05-18T14:02:35.000Z,26.27
2023-05-18T14:07:35.000Z,26.26
2023-05-18T14:12:35.000Z,26.41
2023-05-18T14:17:35.000Z,26.57
2023-05-18T14:22:36.000Z,26.54
2023-05-18T14:27:35.000Z,26.37
2023-05-18T14:32:35.000Z,26.12
2023-05-18T14:37:36.000Z,26.02
2023-05-18T14:42:35.000Z,25.87
2023-05-18T14:47:35.000Z,25.67
2023-05-18T14:52:36.000Z,25.46
2023-05-18T14:57:37.000Z,25.16
2023-05-18T15:02:35.000Z,24.95
2023-05-18T15:07:36.000Z,24.95
2023-05-18T15:12:35.000Z,24.71
2023-05-18T15:17:36.000Z,24.5
2023-05-18T15:22:36.000Z,24.3
2023-05-18T15:27:36.000Z,24.12
2023-05-18T15:32:39.000Z,24.03
2023-05-18T15:37:36.000Z,24.11
2023-05-18T15:42:36.000Z,24.28
2023-05-18T15:47:36.000Z,24.38
2023-05-18T15:52:35.000Z,24.44
2023-05-18T15:57:36.000Z,24.4
2023-05-18T16:02:36.000Z,24.4
2023-05-18T16:07:36.000Z,24.17
2023-05-18T16:12:35.000Z,23.93
2023-05-18T16:17:35.000Z,23.83
2023-05-18T16:22:35.000Z,23.86
2023-05-18T16:27:36.000Z,23.81
2023-05-18T16:32:36.000Z,23.57
2023-05-18T16:37:35.000Z,23.31
2023-05-18T16:42:36.000Z,23.04
2023-05-18T16:47:36.000Z,22.78
2023-05-18T16:52:36.000Z,22.56
2023-05-18T16:57:37.000Z,22.34
2023-05-18T17:02:36.000Z,22.1
2023-05-18T17:07:35.000Z,21.86
2023-05-18T17:12:36.000Z,21.86
2023-05-18T17:17:36.000Z,21.6
2023-05-18T17:22:35.000Z,21.36
2023-05-18T17:27:36.000Z,21.16
2023-05-18T17:32:36.000Z,20.96
2023-05-18T17:37:35.000Z,20.82
2023-05-18T17:42:36.000Z,20.6
2023-05-18T17:47:36.000Z,20.4
2023-05-18T17:52:35.000Z,20.24
2023-05-18T17:57:35.000Z,20.08
2023-05-18T18:02:36.000Z,19.89
2023-05-18T18:07:36.000Z,19.73
2023-05-18T18:12:36.000Z,19.6
2023-05-18T18:17:36.000Z,19.44
2023-05-18T18:22:35.000Z,19.44
2023-05-18T18:27:36.000Z,19.28
2023-05-18T18:32:35.000Z,19.13
2023-05-18T18:37:36.000Z,19.04
2023-05-18T18:42:36.000Z,18.93
2023-05-18T18:47:36.000Z,18.87
2023-05-18T18:52:36.000Z,18.78
2023-05-18T18:57:36.000Z,18.66
2023-05-18T19:02:36.000Z,18.56
2023-05-18T19:07:36.000Z,18.5
2023-05-18T19:12:36.000Z,18.4
2023-05-18T19:17:36.000Z,18.3
2023-05-18T19:22:35.000Z,18.18
2023-05-18T19:27:35.000Z,18.08
2023-05-18T19:32:35.000Z,17.95
2023-05-18T19:37:36.000Z,17.95
2023-05-18T19:42:36.000Z,17.88
2023-05-18T19:47:36.000Z,17.77
2023-05-18T19:52:35.000Z,17.67
2023-05-18T19:57:35.000Z,17.56
2023-05-18T20:02:36.000Z,17.49
2023-05-18T20:07:36.000Z,17.42
2023-05-18T20:12:35.000Z,17.38
2023-05-18T20:17:36.000Z,17.3
2023-05-18T20:22:36.000Z,17.21
2023-05-18T20:27:36.000Z,17.19
2023-05-18T20:32:36.000Z,17.19
2023-05-18T20:37:35.000Z,17.15
2023-05-18T20:42:36.000Z,17.11
2023-05-18T20:47:36.000Z,17.11
2023-05-18T20:52:35.000Z,17
2023-05-18T20:57:35.000Z,16.86
2023-05-18T21:02:36.000Z,16.69
2023-05-18T21:07:36.000Z,16.55
2023-05-18T21:12:38.000Z,16.52
2023-05-18T21:17:35.000Z,16.45
2023-05-18T21:22:35.000Z,16.24
2023-05-18T21:27:35.000Z,16.16
2023-05-18T21:32:36.000Z,16.14
2023-05-18T21:37:35.000Z,16.08
2023-05-18T21:42:35.000Z,16.06
2023-05-18T21:47:36.000Z,16.04
2023-05-18T21:52:36.000Z,16.02
2023-05-18T21:57:36.000Z,16.02
2023-05-18T22:02:36.000Z,16.07
2023-05-18T22:07:36.000Z,16.18
2023-05-18T22:12:36.000Z,16.23
2023-05-18T22:17:35.000Z,16.22
2023-05-18T22:22:40.000Z,16.22
2023-05-18T22:27:35.000Z,16.21
2023-05-18T22:32:36.000Z,16.31
2023-05-18T22:37:36.000Z,16.36
2023-05-18T22:42:36.000Z,16.38
2023-05-18T22:47:36.000Z,16.41
2023-05-18T22:52:36.000Z,16.36
2023-05-18T22:57:35.000Z,16.25
2023-05-18T23:02:35.000Z,16.09
2023-05-18T23:07:36.000Z,16.09
2023-05-18T23:12:36.000Z,16.07
2023-05-18T23:17:36.000Z,16.04
2023-05-18T23:22:36.000Z,15.98
2023-05-18T23:27:35.000Z,16.01
2023-05-18T23:32:35.000Z,15.94
2023-05-18T23:37:36.000Z,15.91
2023-05-18T23:42:36.000Z,15.84
2023-05-18T23:47:35.000Z,15.75
2023-05-18T23:52:35.000Z,15.75
2023-05-18T23:57:35.000Z,15.81
